createdAt,value
2018-11-02T03:10:41.771Z,"  0.0"
2018-11-02T03:15:45.776Z,"  0.0"
2018-11-02T03:16:49.972Z," 22.4"
2018-11-02T03:17:56.154Z," 22.2"
2018-11-02T03:19:05.522Z," 22.0"
2018-11-02T03:20:11.092Z," 21.6"
2018-11-02T03:21:17.817Z," 21.1"
2018-11-02T03:22:24.265Z," 20.5"
2018-11-02T03:23:31.038Z," 19.9"
2018-11-02T03:24:36.687Z," 19.2"
2018-11-02T03:25:41.288Z," 18.5"
2018-11-02T03:26:47.179Z," 17.8"
2018-11-02T03:27:52.498Z," 16.3"
2018-11-02T03:29:00.788Z," 15.5"
2018-11-02T03:30:07.902Z," 14.8"
2018-11-02T03:31:13.949Z," 14.1"
2018-11-02T03:32:18.907Z," 13.5"
2018-11-02T03:33:24.002Z," 12.8"
2018-11-02T03:34:28.960Z," 12.2"
2018-11-02T03:35:34.865Z," 11.7"
2018-11-02T03:36:39.440Z," 11.2"
2018-11-02T03:37:45.555Z," 10.7"
2018-11-02T03:38:50.041Z," 10.2"
2018-11-02T03:39:57.732Z,"  9.4"
2018-11-02T03:41:04.675Z,"  9.0"
2018-11-02T03:42:08.630Z,"  8.7"
2018-11-02T03:43:13.995Z,"  8.4"
2018-11-02T03:44:18.708Z,"  8.1"
2018-11-02T03:45:23.407Z,"  7.8"
2018-11-02T03:46:30.167Z,"  7.6"
2018-11-02T03:47:36.447Z,"  7.4"
2018-11-02T03:48:42.338Z,"  7.2"
2018-11-02T03:49:47.657Z,"  7.0"
2018-11-02T03:50:56.862Z,"  6.8"
2018-11-02T03:52:01.341Z,"  6.4"
2018-11-02T03:53:08.392Z,"  6.3"
2018-11-02T03:54:14.032Z,"  6.2"
2018-11-02T03:55:20.536Z,"  6.0"
2018-11-02T03:56:27.184Z,"  5.9"
2018-11-02T03:57:31.072Z,"  5.8"
2018-11-02T03:58:38.022Z,"  5.7"
2018-11-02T03:59:45.227Z,"  5.6"
2018-11-02T04:00:50.992Z,"  5.5"
2018-11-02T04:01:57.737Z,"  5.4"
2018-11-02T04:03:04.082Z,"  5.3"
2018-11-02T04:04:08.067Z,"  5.2"
2018-11-02T04:05:12.680Z,"  5.1"
2018-11-02T04:06:16.671Z,"  5.1"
2018-11-02T04:07:22.380Z,"  5.0"
2018-11-02T04:08:28.256Z,"  4.9"
2018-11-02T04:09:35.003Z,"  4.9"
2018-11-02T04:10:41.952Z,"  4.8"
2018-11-02T04:11:47.715Z,"  4.8"
2018-11-02T04:12:54.217Z,"  4.7"
2018-11-02T04:13:59.107Z,"  4.7"
2018-11-02T04:15:03.902Z,"  4.6"
2018-11-02T04:16:08.662Z,"  4.6"
2018-11-02T04:17:14.284Z,"  4.6"
2018-11-02T04:18:19.262Z,"  4.5"
2018-11-02T04:19:25.902Z,"  4.5"
2018-11-02T04:20:31.898Z,"  4.5"
2018-11-02T04:21:35.679Z,"  4.4"
2018-11-02T04:22:41.052Z,"  4.4"
2018-11-02T04:23:47.322Z,"  4.3"
2018-11-02T04:24:52.430Z,"  4.3"
2018-11-02T04:25:59.823Z,"  4.3"
2018-11-02T04:27:04.088Z,"  4.2"
2018-11-02T04:28:10.540Z,"  4.2"
2018-11-02T04:29:14.858Z,"  4.1"
2018-11-02T04:30:20.157Z,"  4.1"
2018-11-02T04:31:24.062Z,"  4.1"
2018-11-02T04:32:30.277Z,"  4.1"
2018-11-02T04:33:36.422Z,"  4.0"
2018-11-02T04:34:43.020Z,"  4.0"
2018-11-02T04:35:48.442Z,"  4.0"
2018-11-02T04:36:52.377Z,"  4.0"
2018-11-02T04:37:59.754Z,"  3.9"
2018-11-02T04:39:04.627Z,"  3.9"
2018-11-02T04:40:12.152Z,"  3.9"
2018-11-02T04:41:17.442Z,"  3.8"
2018-11-02T04:42:21.347Z,"  3.8"
2018-11-02T04:43:25.928Z,"  3.8"
2018-11-02T04:44:29.988Z,"  3.8"
2018-11-02T04:45:36.598Z,"  3.8"
2018-11-02T04:46:41.147Z,"  3.7"
2018-11-02T04:47:45.153Z,"  3.7"
2018-11-02T04:48:51.027Z,"  3.7"
2018-11-02T04:49:56.857Z,"  3.7"
2018-11-02T04:51:02.366Z,"  3.7"
2018-11-02T04:52:06.590Z,"  3.7"
2018-11-02T04:53:13.162Z,"  3.6"
2018-11-02T04:54:20.294Z,"  3.6"
2018-11-02T04:55:24.157Z,"  3.6"
2018-11-02T04:56:28.347Z,"  3.6"
2018-11-02T04:57:34.583Z,"  3.6"
2018-11-02T04:58:39.090Z,"  3.6"
2018-11-02T04:59:44.377Z,"  3.6"
2018-11-02T05:00:49.592Z,"  3.6"
2018-11-02T05:01:54.772Z,"  3.5"
2018-11-02T05:03:02.512Z,"  3.5"
2018-11-02T05:04:08.235Z,"  3.5"
2018-11-02T05:05:13.853Z,"  3.5"
2018-11-02T05:06:18.877Z,"  3.5"
2018-11-02T05:07:24.736Z,"  3.5"
2018-11-02T05:08:33.960Z,"  3.5"
2018-11-02T05:09:37.923Z,"  3.5"
2018-11-02T05:10:42.832Z,"  3.4"
2018-11-02T05:11:47.952Z,"  3.4"
2018-11-02T05:12:54.912Z,"  3.4"
2018-11-02T05:13:58.867Z,"  3.4"
2018-11-02T05:15:04.436Z,"  3.4"
2018-11-02T05:16:09.755Z,"  3.4"
2018-11-02T05:17:14.077Z,"  3.4"
2018-11-02T05:18:19.347Z,"  3.4"
2018-11-02T05:19:23.625Z,"  3.4"
2018-11-02T05:20:31.137Z,"  3.4"
2018-11-02T05:21:38.100Z,"  3.4"
2018-11-02T05:22:44.717Z,"  3.4"
2018-11-02T05:23:49.097Z,"  3.4"
2018-11-02T05:24:53.722Z,"  3.4"
2018-11-02T05:26:00.275Z,"  3.3"
2018-11-02T05:27:04.862Z,"  3.3"
2018-11-02T05:28:11.447Z,"  3.3"
2018-11-02T05:29:15.998Z,"  3.3"
2018-11-02T05:30:20.767Z,"  3.3"
2018-11-02T05:31:27.265Z,"  3.3"
2018-11-02T05:32:32.278Z,"  3.3"
2018-11-02T05:33:37.652Z,"  3.2"
2018-11-02T05:34:42.887Z,"  3.2"
2018-11-02T05:35:47.835Z,"  3.2"
2018-11-02T05:36:54.787Z,"  3.2"
2018-11-02T05:38:01.208Z,"  3.2"
2018-11-02T05:39:07.205Z,"  3.2"
2018-11-02T05:40:13.612Z,"  3.2"
2018-11-02T05:41:20.260Z,"  3.2"
2018-11-02T05:42:26.072Z,"  3.2"
2018-11-02T05:43:33.627Z,"  3.2"
2018-11-02T05:44:39.363Z,"  3.2"
2018-11-02T05:45:43.947Z,"  3.2"
2018-11-02T05:46:49.582Z,"  3.2"
2018-11-02T05:47:54.752Z,"  3.2"
2018-11-02T05:49:00.911Z,"  3.2"
2018-11-02T05:50:07.652Z,"  3.2"
2018-11-02T05:51:14.825Z,"  3.1"
2018-11-02T05:52:20.767Z,"  3.1"
2018-11-02T05:53:27.788Z,"  3.1"
2018-11-02T05:54:33.807Z,"  3.1"
2018-11-02T05:55:39.962Z,"  3.1"
2018-11-02T05:56:45.152Z,"  3.1"
2018-11-02T05:57:51.367Z,"  3.1"
2018-11-02T05:58:56.813Z,"  3.1"
2018-11-02T06:00:03.328Z,"  3.1"
2018-11-02T06:01:09.881Z,"  3.1"
2018-11-02T06:02:14.621Z,"  3.1"
2018-11-02T06:03:19.102Z,"  3.1"
2018-11-02T06:04:23.542Z,"  3.1"
2018-11-02T06:05:29.034Z,"  3.1"
2018-11-02T06:06:35.700Z,"  3.1"
2018-11-02T06:07:41.095Z,"  3.1"
2018-11-02T06:08:46.042Z,"  3.1"
2018-11-02T06:09:52.148Z,"  3.1"
2018-11-02T06:10:56.322Z,"  3.1"
2018-11-02T06:12:02.892Z,"  3.1"
2018-11-02T06:13:07.392Z,"  3.1"
2018-11-02T06:14:11.722Z,"  3.1"
2018-11-02T06:15:16.275Z,"  3.1"
2018-11-02T06:16:21.427Z,"  3.1"
2018-11-02T06:17:25.652Z,"  3.1"
2018-11-02T06:18:30.387Z,"  3.1"
2018-11-02T06:19:35.973Z,"  3.1"
2018-11-02T06:20:41.491Z,"  3.1"
2018-11-02T06:21:46.842Z,"  3.1"
2018-11-02T06:22:52.670Z,"  3.1"
2018-11-02T06:23:56.632Z,"  3.1"
2018-11-02T06:25:01.382Z,"  3.1"
2018-11-02T06:26:08.283Z,"  3.1"
2018-11-02T06:27:13.918Z,"  3.1"
2018-11-02T06:28:17.987Z,"  3.1"
2018-11-02T06:29:25.935Z,"  3.1"
2018-11-02T06:30:32.238Z,"  3.1"
2018-11-02T06:31:36.867Z,"  3.1"
2018-11-02T06:32:43.042Z,"  3.1"
2018-11-02T06:33:48.480Z,"  3.1"
2018-11-02T06:34:54.162Z,"  3.2"
2018-11-02T06:36:00.116Z,"  3.2"
2018-11-02T06:37:07.917Z,"  3.2"
2018-11-02T06:38:13.016Z,"  3.2"
2018-11-02T06:39:17.610Z,"  3.2"
2018-11-02T06:40:23.096Z,"  3.3"
2018-11-02T06:41:30.362Z,"  3.3"
2018-11-02T06:42:37.576Z,"  3.3"
2018-11-02T06:43:43.527Z,"  3.4"
2018-11-02T06:44:49.548Z,"  3.4"
2018-11-02T06:45:56.185Z,"  3.4"
2018-11-02T06:47:03.897Z,"  3.4"
2018-11-02T06:48:09.317Z,"  3.5"
2018-11-02T06:49:16.067Z,"  3.5"
2018-11-02T06:50:22.919Z,"  3.5"
2018-11-02T06:51:27.725Z,"  3.5"
2018-11-02T06:52:33.427Z,"  3.5"
2018-11-02T06:53:40.527Z,"  3.6"
2018-11-02T06:54:46.590Z,"  3.6"
2018-11-02T06:55:51.250Z,"  3.6"
2018-11-02T06:56:55.890Z,"  3.7"
2018-11-02T06:58:00.911Z,"  3.7"
2018-11-02T06:59:04.788Z,"  3.7"
2018-11-02T07:00:09.312Z,"  3.7"
2018-11-02T07:01:42.908Z,"  3.8"
2018-11-02T07:02:49.952Z,"  3.8"
2018-11-02T07:03:54.387Z,"  3.8"
2018-11-02T07:05:01.229Z,"  3.8"
2018-11-02T07:06:06.537Z,"  3.9"
2018-11-02T07:07:12.278Z,"  3.9"
2018-11-02T07:08:19.360Z,"  3.9"
2018-11-02T07:09:25.047Z,"  3.9"
2018-11-02T07:10:32.172Z,"  4.0"
2018-11-02T07:11:39.152Z,"  4.0"
2018-11-02T07:12:43.102Z,"  4.1"
2018-11-02T07:13:49.057Z,"  4.1"
2018-11-02T07:14:53.487Z,"  4.1"
2018-11-02T07:15:58.844Z,"  4.2"
2018-11-02T07:17:02.872Z,"  4.2"
2018-11-02T07:18:08.621Z,"  4.2"
2018-11-02T07:19:15.535Z,"  4.3"
2018-11-02T07:20:21.102Z,"  4.3"
2018-11-02T07:21:25.870Z,"  4.3"
2018-11-02T07:22:31.396Z,"  4.4"
2018-11-02T07:23:38.882Z,"  4.4"
2018-11-02T07:24:43.413Z,"  4.4"
2018-11-02T07:25:49.290Z,"  4.5"
2018-11-02T07:26:55.587Z,"  4.5"
2018-11-02T07:27:59.795Z,"  4.5"
2018-11-02T07:29:04.827Z,"  4.6"
2018-11-02T07:30:09.671Z,"  4.6"
2018-11-02T07:31:15.290Z,"  4.6"
2018-11-02T07:32:21.516Z,"  4.6"
2018-11-02T07:33:27.320Z,"  4.7"
2018-11-02T07:34:33.036Z,"  4.7"
2018-11-02T07:35:39.158Z,"  4.7"
2018-11-02T07:36:45.437Z,"  4.7"
2018-11-02T07:37:50.772Z,"  4.8"
2018-11-02T07:38:58.307Z,"  4.8"
2018-11-02T07:40:05.421Z,"  4.8"
2018-11-02T07:41:10.460Z,"  4.8"
2018-11-02T07:42:18.797Z,"  4.9"
2018-11-02T07:43:25.086Z,"  4.9"
2018-11-02T07:44:29.950Z,"  4.9"
2018-11-02T07:45:34.887Z,"  4.9"
2018-11-02T07:46:39.093Z,"  4.9"
2018-11-02T07:47:44.873Z,"  4.9"
2018-11-02T07:48:49.060Z,"  4.9"
2018-11-02T07:49:54.277Z,"  4.9"
2018-11-02T07:50:59.073Z,"  4.9"
2018-11-02T07:52:06.113Z,"  4.9"
2018-11-02T07:53:13.453Z,"  4.9"
2018-11-02T07:54:17.832Z,"  4.9"
2018-11-02T07:55:24.860Z,"  5.0"
2018-11-02T07:56:30.897Z,"  5.0"
2018-11-02T07:57:37.517Z,"  5.0"
2018-11-02T07:58:45.257Z,"  5.0"
2018-11-02T07:59:49.842Z,"  5.0"
2018-11-02T08:00:56.240Z,"  5.0"
2018-11-02T08:02:03.126Z,"  5.1"
2018-11-02T08:03:10.101Z,"  5.1"
2018-11-02T08:04:15.873Z,"  5.1"
2018-11-02T08:05:20.922Z,"  5.1"
2018-11-02T08:06:25.864Z,"  5.1"
2018-11-02T08:07:31.272Z,"  5.1"
2018-11-02T08:08:37.567Z,"  5.1"
2018-11-02T08:09:42.487Z,"  5.1"
2018-11-02T08:10:48.421Z,"  5.1"
2018-11-02T08:11:52.622Z,"  5.2"
2018-11-02T08:12:58.487Z,"  5.2"
2018-11-02T08:14:05.422Z,"  5.2"
2018-11-02T08:15:09.888Z,"  5.3"
2018-11-02T08:16:16.313Z,"  5.3"
2018-11-02T08:17:21.081Z,"  5.3"
2018-11-02T08:18:27.854Z,"  5.3"
2018-11-02T08:19:32.747Z,"  5.4"
2018-11-02T08:20:37.663Z,"  5.4"
2018-11-02T08:21:45.307Z,"  5.4"
2018-11-02T08:22:49.952Z,"  5.5"
2018-11-02T08:23:54.832Z,"  5.5"
2018-11-02T08:25:00.733Z,"  5.6"
2018-11-02T08:26:11.157Z,"  5.6"
2018-11-02T08:27:16.391Z,"  5.7"
2018-11-02T08:28:22.177Z,"  5.7"
2018-11-02T08:29:28.187Z,"  5.7"
2018-11-02T08:30:32.993Z,"  5.8"
2018-11-02T08:31:39.837Z,"  5.8"
2018-11-02T08:32:46.097Z,"  5.8"
2018-11-02T08:33:52.194Z,"  5.9"
2018-11-02T08:34:57.957Z,"  5.9"
2018-11-02T08:36:05.062Z,"  6.0"
2018-11-02T08:37:09.685Z,"  6.0"
2018-11-02T08:38:16.302Z,"  6.0"
2018-11-02T08:39:20.798Z,"  6.0"
2018-11-02T08:40:26.812Z,"  6.1"
2018-11-02T08:41:31.926Z,"  6.1"
2018-11-02T08:42:38.323Z,"  6.1"
2018-11-02T08:43:46.621Z,"  6.1"
2018-11-02T08:44:53.675Z,"  6.1"
2018-11-02T08:46:00.907Z,"  6.2"
2018-11-02T08:47:04.992Z,"  6.2"
2018-11-02T08:48:12.028Z,"  6.2"
2018-11-02T08:49:16.898Z,"  6.2"
2018-11-02T08:50:23.033Z,"  6.3"
2018-11-02T08:51:28.162Z,"  6.3"
2018-11-02T08:52:32.978Z,"  6.3"
2018-11-02T08:53:37.967Z,"  6.4"
2018-11-02T08:54:44.752Z,"  6.4"
2018-11-02T08:55:49.110Z,"  6.5"
2018-11-02T08:56:55.748Z,"  6.6"
2018-11-02T08:58:00.449Z,"  6.7"
2018-11-02T08:59:06.678Z,"  6.9"
2018-11-02T09:00:15.039Z,"  7.0"
2018-11-02T09:01:20.883Z,"  7.1"
2018-11-02T09:02:25.075Z,"  7.2"
2018-11-02T09:03:30.286Z,"  7.2"
2018-11-02T09:04:34.203Z,"  7.3"
2018-11-02T09:05:43.647Z,"  7.3"
2018-11-02T09:06:49.483Z,"  7.4"
2018-11-02T09:07:56.248Z,"  7.4"
2018-11-02T09:09:01.568Z,"  7.4"
2018-11-02T09:10:08.308Z,"  7.5"
2018-11-02T09:11:14.252Z,"  7.5"
2018-11-02T09:12:20.493Z,"  7.5"
2018-11-02T09:13:24.468Z,"  7.5"
2018-11-02T09:14:29.135Z,"  7.5"
2018-11-02T09:15:33.738Z,"  7.5"
2018-11-02T09:16:38.095Z,"  7.5"
2018-11-02T09:17:45.918Z,"  7.5"
2018-11-02T09:18:53.400Z,"  7.5"
2018-11-02T09:19:59.640Z,"  7.5"
2018-11-02T09:21:04.310Z,"  7.5"
2018-11-02T09:22:10.208Z,"  7.5"
2018-11-02T09:23:14.627Z,"  7.5"
2018-11-02T09:24:18.982Z,"  7.5"
2018-11-02T09:25:23.768Z,"  7.5"
2018-11-02T09:26:28.753Z,"  7.6"
2018-11-02T09:27:33.511Z,"  7.7"
2018-11-02T09:28:38.388Z,"  7.9"
2018-11-02T09:29:44.667Z,"  8.1"
2018-11-02T09:30:49.636Z,"  8.3"
2018-11-02T09:31:55.946Z,"  8.5"
2018-11-02T09:33:02.758Z,"  8.7"
2018-11-02T09:34:08.702Z,"  8.8"
2018-11-02T09:35:15.263Z,"  9.0"
2018-11-02T09:36:19.762Z,"  9.0"
2018-11-02T09:37:24.133Z,"  9.1"
2018-11-02T09:38:31.113Z,"  9.1"
2018-11-02T09:39:37.512Z,"  9.2"
2018-11-02T09:40:42.230Z,"  9.2"
2018-11-02T09:41:47.498Z,"  9.3"
2018-11-02T09:42:53.388Z,"  9.4"
2018-11-02T09:44:00.870Z,"  9.6"
2018-11-02T09:45:05.452Z,"  9.8"
2018-11-02T09:46:12.638Z," 10.1"
2018-11-02T09:47:18.848Z," 10.7"
2018-11-02T09:48:25.462Z," 11.1"
2018-11-02T09:49:31.849Z," 11.4"
2018-11-02T09:50:37.338Z," 11.8"
2018-11-02T09:51:43.767Z," 12.1"
2018-11-02T09:52:48.303Z," 12.3"
2018-11-02T09:53:55.382Z," 12.6"
2018-11-02T09:55:01.833Z," 12.9"
2018-11-02T09:56:07.232Z," 13.1"
2018-11-02T09:57:15.948Z," 13.4"
2018-11-02T09:58:20.787Z," 13.9"
2018-11-02T09:59:25.312Z," 14.2"
2018-11-02T10:00:30.822Z," 14.4"
2018-11-02T10:01:36.973Z," 14.6"
2018-11-02T10:02:42.449Z," 14.8"
2018-11-02T10:03:49.102Z," 14.9"
2018-11-02T10:04:53.875Z," 15.1"
2018-11-02T10:06:00.373Z," 15.3"
2018-11-02T10:07:05.865Z," 15.4"
2018-11-02T10:08:10.773Z," 15.5"
2018-11-02T10:09:16.156Z," 15.6"
2018-11-02T10:10:20.676Z," 15.9"
2018-11-02T10:11:24.982Z," 16.1"
2018-11-02T10:12:30.348Z," 16.2"
2018-11-02T10:13:34.678Z," 16.3"
2018-11-02T10:14:39.267Z," 16.5"
2018-11-02T10:15:44.061Z," 16.5"
2018-11-02T10:16:50.432Z," 16.6"
2018-11-02T10:17:56.337Z," 16.6"
2018-11-02T10:19:00.518Z," 16.6"
2018-11-02T10:20:04.718Z," 16.6"
2018-11-02T10:21:11.138Z," 16.7"
2018-11-02T10:22:16.827Z," 16.8"
2018-11-02T10:23:22.647Z," 16.9"
2018-11-02T10:24:27.337Z," 16.9"
2018-11-02T10:25:31.720Z," 16.8"
2018-11-02T10:26:37.790Z," 16.8"
2018-11-02T10:27:45.197Z," 16.7"
2018-11-02T10:28:49.713Z," 16.7"
2018-11-02T10:29:56.068Z," 16.6"
2018-11-02T10:31:01.829Z," 16.5"
2018-11-02T10:32:07.213Z," 16.4"
2018-11-02T10:33:14.067Z," 16.2"
2018-11-02T10:34:19.952Z," 16.1"
2018-11-02T10:35:25.398Z," 15.7"
2018-11-02T10:36:31.017Z," 15.6"
2018-11-02T10:37:35.725Z," 15.4"
2018-11-02T10:38:40.198Z," 15.3"
2018-11-02T10:39:44.939Z," 15.1"
2018-11-02T10:40:49.645Z," 15.0"
2018-11-02T10:41:55.742Z," 14.9"
2018-11-02T10:43:01.631Z," 14.9"
2018-11-02T10:44:07.716Z," 14.8"
2018-11-02T10:45:15.728Z," 14.8"
2018-11-02T10:46:22.922Z," 14.7"
2018-11-02T10:47:28.822Z," 14.7"
2018-11-02T10:48:35.222Z," 14.7"
2018-11-02T10:49:41.580Z," 14.6"
2018-11-02T10:50:45.772Z," 14.7"
2018-11-02T10:51:53.387Z," 14.7"
2018-11-02T10:52:59.449Z," 14.7"
2018-11-02T10:54:04.722Z," 14.7"
2018-11-02T10:55:11.771Z," 14.7"
2018-11-02T10:56:18.707Z," 14.6"
2018-11-02T10:57:41.816Z," 14.5"
2018-11-02T10:58:47.047Z," 14.4"
2018-11-02T10:59:53.997Z," 14.3"
2018-11-02T11:01:01.274Z," 14.2"
2018-11-02T11:02:06.571Z," 14.2"
2018-11-02T11:03:10.702Z," 14.1"
2018-11-02T11:04:18.297Z," 14.0"
2018-11-02T11:05:24.038Z," 13.9"
2018-11-02T11:06:31.542Z," 13.8"
2018-11-02T11:07:39.700Z," 13.7"
2018-11-02T11:08:43.847Z," 13.6"
2018-11-02T11:09:48.914Z," 13.6"
2018-11-02T11:10:54.933Z," 13.5"
2018-11-02T11:12:01.491Z," 13.4"
2018-11-02T11:13:05.750Z," 13.3"
2018-11-02T11:14:09.972Z," 13.2"
2018-11-02T11:15:17.527Z," 13.1"
2018-11-02T11:16:23.632Z," 13.0"
2018-11-02T11:17:30.247Z," 12.9"
2018-11-02T11:18:37.367Z," 12.6"
2018-11-02T11:19:42.107Z," 12.6"
2018-11-02T11:20:49.842Z," 12.5"
2018-11-02T11:21:55.542Z," 12.4"
2018-11-02T11:22:59.886Z," 12.3"
2018-11-02T11:24:04.062Z," 12.2"
2018-11-02T11:25:08.518Z," 12.2"
2018-11-02T11:26:13.257Z," 12.1"
2018-11-02T11:27:17.991Z," 12.1"
2018-11-02T11:28:22.717Z," 12.0"
2018-11-02T11:29:27.810Z," 12.0"
2018-11-02T11:30:31.979Z," 12.0"
2018-11-02T11:31:37.677Z," 11.9"
2018-11-02T11:32:42.466Z," 11.9"
2018-11-02T11:33:47.737Z," 11.9"
2018-11-02T11:34:55.711Z," 11.9"
2018-11-02T11:36:03.077Z," 11.9"
2018-11-02T11:37:09.032Z," 11.9"
2018-11-02T11:38:13.397Z," 11.9"
2018-11-02T11:39:19.561Z," 11.9"
2018-11-02T11:40:25.888Z," 11.9"
2018-11-02T11:41:30.485Z," 11.9"
2018-11-02T11:42:34.627Z," 11.9"
2018-11-02T11:43:39.237Z," 12.0"
2018-11-02T11:44:43.503Z," 12.0"
2018-11-02T11:45:49.817Z," 12.0"
2018-11-02T11:46:54.437Z," 12.0"
2018-11-02T11:48:01.537Z," 12.0"
2018-11-02T11:49:17.985Z," 12.1"
2018-11-02T11:50:25.072Z," 12.1"
2018-11-02T11:51:32.497Z," 12.1"
2018-11-02T11:52:38.362Z," 12.1"
2018-11-02T11:53:44.812Z," 12.2"
2018-11-02T11:54:51.442Z," 12.2"
2018-11-02T11:55:56.776Z," 12.2"
2018-11-02T11:57:02.908Z," 12.2"
2018-11-02T11:58:10.954Z," 12.3"
2018-11-02T11:59:19.497Z," 12.3"
2018-11-02T12:00:25.013Z," 12.3"
2018-11-02T12:01:31.955Z," 12.3"
2018-11-02T12:02:38.013Z," 12.4"
2018-11-02T12:03:43.882Z," 12.4"
2018-11-02T12:04:49.960Z," 12.4"
2018-11-02T12:05:53.992Z," 12.4"
2018-11-02T12:06:59.102Z," 12.4"
2018-11-02T12:08:03.097Z," 12.4"
2018-11-02T12:09:08.623Z," 12.5"
2018-11-02T12:10:13.378Z," 12.5"
2018-11-02T12:11:19.272Z," 12.5"
2018-11-02T12:12:27.121Z," 12.5"
2018-11-02T12:13:31.977Z," 12.5"
2018-11-02T12:14:37.791Z," 12.5"
2018-11-02T12:15:43.143Z," 12.5"
2018-11-02T12:16:48.882Z," 12.5"
2018-11-02T12:17:54.341Z," 12.5"
2018-11-02T12:19:00.868Z," 12.5"
2018-11-02T12:20:05.042Z," 12.6"
2018-11-02T12:21:09.191Z," 12.6"
2018-11-02T12:22:59.246Z," 12.6"
2018-11-02T12:24:04.267Z," 12.6"
2018-11-02T12:25:08.287Z," 12.6"
2018-11-02T12:26:15.011Z," 12.6"
2018-11-02T12:27:19.842Z," 12.7"
2018-11-02T12:28:25.060Z," 12.7"
2018-11-02T12:29:29.702Z," 12.7"
2018-11-02T12:30:34.679Z," 12.7"
2018-11-02T12:31:39.965Z," 12.7"
2018-11-02T12:32:44.442Z," 12.8"
2018-11-02T12:33:49.688Z," 12.8"
2018-11-02T12:34:55.572Z," 12.8"
2018-11-02T12:36:01.939Z," 12.8"
2018-11-02T12:37:08.210Z," 12.8"
2018-11-02T12:38:14.726Z," 12.9"
2018-11-02T12:39:23.061Z," 12.9"
2018-11-02T12:40:30.526Z," 12.9"
2018-11-02T12:41:36.380Z," 12.9"
2018-11-02T12:42:42.207Z," 13.0"
2018-11-02T12:43:51.542Z," 13.0"
2018-11-02T12:44:56.133Z," 13.0"
2018-11-02T12:46:00.337Z," 13.0"
2018-11-02T12:47:06.367Z," 13.0"
2018-11-02T12:48:11.809Z," 13.1"
2018-11-02T12:49:18.988Z," 13.1"
2018-11-02T12:50:26.089Z," 13.1"
2018-11-02T12:51:32.758Z," 13.1"
2018-11-02T12:52:37.476Z," 13.1"
2018-11-02T12:53:42.052Z," 13.1"
2018-11-02T12:54:46.949Z," 13.1"
2018-11-02T12:55:53.915Z," 13.1"
2018-11-02T12:57:00.887Z," 13.2"
2018-11-02T12:58:05.620Z," 13.2"
2018-11-02T12:59:12.038Z," 13.2"
2018-11-02T13:00:16.869Z," 13.2"
2018-11-02T13:01:24.139Z," 13.2"
2018-11-02T13:02:31.377Z," 13.3"
2018-11-02T13:03:35.497Z," 13.3"
2018-11-02T13:04:39.454Z," 13.3"
2018-11-02T13:05:45.753Z," 13.3"
2018-11-02T13:06:52.918Z," 13.3"
2018-11-02T13:07:57.278Z," 13.3"
2018-11-02T13:09:02.495Z," 13.4"
2018-11-02T13:10:08.700Z," 13.4"
2018-11-02T13:11:13.449Z," 13.4"
2018-11-02T13:12:22.795Z," 13.4"
2018-11-02T13:13:28.300Z," 13.4"
2018-11-02T13:14:32.619Z," 13.4"
2018-11-02T13:15:38.640Z," 13.4"
2018-11-02T13:16:42.969Z," 13.4"
2018-11-02T13:17:47.658Z," 13.4"
2018-11-02T13:18:55.142Z," 13.4"
2018-11-02T13:20:01.842Z," 13.4"
2018-11-02T13:21:08.362Z," 13.4"
2018-11-02T13:22:12.700Z," 13.4"
2018-11-02T13:23:16.809Z," 13.4"
2018-11-02T13:24:23.620Z," 13.4"
2018-11-02T13:25:28.933Z," 13.4"
2018-11-02T13:26:34.228Z," 13.4"
2018-11-02T13:27:41.727Z," 13.4"
2018-11-02T13:28:49.167Z," 13.4"
2018-11-02T13:29:58.104Z," 13.4"
2018-11-02T13:31:02.516Z," 13.4"
2018-11-02T13:32:08.979Z," 13.4"
2018-11-02T13:33:15.456Z," 13.4"
2018-11-02T13:34:20.309Z," 13.5"
2018-11-02T13:35:28.250Z," 13.5"
2018-11-02T13:36:34.319Z," 13.5"
2018-11-02T13:37:41.523Z," 13.5"
2018-11-02T13:38:47.022Z," 13.5"
2018-11-02T13:39:53.407Z," 13.5"
2018-11-02T13:40:58.532Z," 13.5"
2018-11-02T13:42:06.422Z," 13.4"
2018-11-02T13:43:11.170Z," 13.4"
2018-11-02T13:44:17.519Z," 13.4"
2018-11-02T13:45:24.699Z," 13.4"
2018-11-02T13:46:29.227Z," 13.4"
2018-11-02T13:47:34.279Z," 13.3"
2018-11-02T13:48:38.657Z," 13.3"
2018-11-02T13:49:43.832Z," 13.3"
2018-11-02T13:50:50.152Z," 13.3"
2018-11-02T13:51:54.138Z," 13.2"
2018-11-02T13:52:59.177Z," 13.2"
2018-11-02T13:54:04.727Z," 13.1"
2018-11-02T13:55:10.482Z," 13.1"
2018-11-02T13:56:16.678Z," 13.0"
2018-11-02T13:57:21.438Z," 13.0"
2018-11-02T13:58:27.690Z," 13.0"
2018-11-02T13:59:32.629Z," 12.9"
2018-11-02T14:00:38.832Z," 12.9"
2018-11-02T14:01:44.342Z," 12.9"
2018-11-02T14:02:48.860Z," 12.8"
2018-11-02T14:03:52.820Z," 12.8"
2018-11-02T14:04:58.546Z," 12.8"
2018-11-02T14:06:03.747Z," 12.7"
2018-11-02T14:07:10.993Z," 12.8"
2018-11-02T14:08:15.822Z," 12.8"
2018-11-02T14:09:21.512Z," 12.9"
2018-11-02T14:10:28.693Z," 13.0"
2018-11-02T14:11:35.904Z," 13.1"
2018-11-02T14:12:40.937Z," 13.2"
2018-11-02T14:13:46.022Z," 13.3"
2018-11-02T14:14:50.847Z," 13.4"
2018-11-02T14:15:56.753Z," 13.5"
2018-11-02T14:17:01.823Z," 13.7"
2018-11-02T14:18:08.651Z," 13.8"
2018-11-02T14:19:15.527Z," 14.0"
2018-11-02T14:20:22.687Z," 14.1"
2018-11-02T14:21:29.190Z," 14.2"
2018-11-02T14:22:36.592Z," 14.4"
2018-11-02T14:23:42.360Z," 14.5"
2018-11-02T14:24:48.486Z," 14.6"
2018-11-02T14:25:54.204Z," 14.6"
2018-11-02T14:26:58.898Z," 14.7"
2018-11-02T14:28:03.062Z," 14.8"
2018-11-02T17:25:02.073Z,"  0.0"
2018-11-02T17:26:08.829Z," 19.0"
2018-11-02T17:27:14.243Z," 19.0"
2018-11-02T17:28:19.531Z," 19.0"
2018-11-02T17:29:25.609Z," 19.0"
2018-11-02T17:30:32.179Z," 19.0"
2018-11-02T17:31:39.998Z," 19.0"
2018-11-02T17:32:44.912Z," 19.0"
2018-11-02T17:33:51.009Z," 19.0"
2018-11-02T17:35:00.627Z," 19.0"
2018-11-02T17:36:05.368Z," 19.0"
2018-11-02T17:37:11.388Z," 19.0"
2018-11-02T17:38:44.977Z," 19.0"
2018-11-02T17:39:51.185Z," 19.0"
2018-11-02T17:40:58.951Z," 19.0"
2018-11-02T17:42:03.579Z," 19.0"
2018-11-02T17:43:08.725Z," 19.0"
2018-11-02T17:44:15.955Z," 19.0"
2018-11-02T17:45:22.993Z," 19.0"
2018-11-02T17:46:30.711Z," 19.0"
2018-11-02T17:47:37.737Z," 19.0"
2018-11-02T17:48:43.244Z," 18.9"
2018-11-02T17:49:51.198Z," 18.9"
2018-11-02T17:50:58.137Z," 18.8"
2018-11-02T17:52:02.368Z," 18.8"
2018-11-02T17:53:06.488Z," 18.7"
2018-11-02T17:54:11.923Z," 18.6"
2018-11-02T17:55:18.296Z," 18.5"
2018-11-02T17:56:25.549Z," 18.5"
2018-11-02T17:57:30.305Z," 18.4"
2018-11-02T17:58:37.037Z," 18.4"
2018-11-02T17:59:44.130Z," 18.3"
